createdAt,value
2023-10-20T00:00:59.170Z,188.02
2023-10-20T00:03:49.502Z,158.50
2023-10-20T00:06:42.641Z,104.28
2023-10-20T00:09:32.879Z,114.15
2023-10-20T00:12:23.512Z,176.90
2023-10-20T00:15:15.762Z,129.70
2023-10-20T00:18:07.175Z,211.65
2023-10-20T00:20:57.430Z,116.35
2023-10-20T00:23:50.262Z,158.43
2023-10-20T00:26:40.853Z,123.60
2023-10-20T00:29:31.120Z,151.80
2023-10-20T00:32:23.288Z,157.07
2023-10-20T00:35:15.212Z,219.77
2023-10-20T00:38:05.803Z,165.10
2023-10-20T00:40:59.273Z,131.60
2023-10-20T00:43:49.555Z,144.63
2023-10-20T00:46:39.945Z,127.68
2023-10-20T00:49:30.278Z,97.40
2023-10-20T00:52:20.645Z,158.05
2023-10-20T00:55:12.917Z,104.90
2023-10-20T00:58:07.240Z,202.18
2023-10-20T01:00:57.728Z,193.90
2023-10-20T01:03:48.175Z,183.45
2023-10-20T01:06:40.400Z,119.95
2023-10-20T01:09:31.381Z,149.10
2023-10-20T01:12:21.999Z,133.07
2023-10-20T01:15:18.556Z,140.43
2023-10-20T01:18:11.292Z,171.93
2023-10-20T01:21:01.500Z,193.40
2023-10-20T01:23:58.021Z,154.38
2023-10-20T01:26:48.434Z,184.60
2023-10-20T01:29:38.830Z,179.73
2023-10-20T01:32:29.108Z,126.85
2023-10-20T01:35:19.640Z,94.95
2023-10-20T01:38:12.696Z,191.75
2023-10-20T01:41:05.695Z,123.47
2023-10-20T01:43:55.983Z,277.85
2023-10-20T01:46:51.013Z,132.75
2023-10-20T01:49:41.354Z,141.82
2023-10-20T01:52:32.052Z,198.75
2023-10-20T01:55:22.338Z,100.25
2023-10-20T01:58:15.391Z,126.03
2023-10-20T02:01:05.703Z,92.00
2023-10-20T02:03:55.985Z,190.57
2023-10-20T02:06:46.685Z,149.25
2023-10-20T02:09:36.980Z,174.73
2023-10-20T02:12:27.229Z,198.35
2023-10-20T02:15:20.174Z,160.98
2023-10-20T02:18:10.839Z,113.57
2023-10-20T02:21:04.992Z,157.27
2023-10-20T02:23:55.285Z,163.73
2023-10-20T02:26:47.176Z,119.38
2023-10-20T02:29:37.419Z,151.52
2023-10-20T02:32:30.329Z,116.65
2023-10-20T02:35:20.839Z,115.35
2023-10-20T02:38:11.160Z,148.27
2023-10-20T02:41:01.547Z,113.15
2023-10-20T02:43:53.139Z,125.47
2023-10-20T02:46:43.721Z,104.25
2023-10-20T02:49:36.641Z,127.65
2023-10-20T02:52:27.056Z,151.70
2023-10-20T02:55:17.746Z,129.85
2023-10-20T02:58:09.061Z,136.57
2023-10-20T03:00:59.348Z,162.85
2023-10-20T03:03:49.697Z,126.50
2023-10-20T03:06:43.129Z,95.25
2023-10-20T03:09:33.362Z,76.60
2023-10-20T03:12:23.588Z,211.60
2023-10-20T03:15:14.952Z,135.90
2023-10-20T03:18:05.256Z,136.35
2023-10-20T03:20:55.657Z,122.15
2023-10-20T03:23:48.471Z,159.50
2023-10-20T03:26:39.167Z,113.95
2023-10-20T03:29:29.630Z,92.55
2023-10-20T03:32:20.758Z,88.60
2023-10-20T03:35:13.455Z,165.02
2023-10-20T03:38:05.880Z,54.65
2023-10-20T03:41:07.962Z,101.30
2023-10-20T03:43:58.300Z,82.57
2023-10-20T03:46:49.974Z,90.50
2023-10-20T03:49:40.289Z,76.25
2023-10-20T03:52:31.794Z,69.15
2023-10-20T03:55:23.080Z,79.40
2023-10-20T03:58:16.140Z,72.13
2023-10-20T04:01:08.204Z,87.57
2023-10-20T04:03:58.662Z,66.68
2023-10-20T04:06:50.763Z,62.08
2023-10-20T04:09:41.001Z,51.35
2023-10-20T04:12:31.325Z,53.35
2023-10-20T04:15:27.530Z,67.22
2023-10-20T04:18:17.887Z,53.08
2023-10-20T04:21:08.201Z,56.28
2023-10-20T04:23:58.566Z,55.45
2023-10-20T04:26:49.057Z,50.90
2023-10-20T04:29:49.068Z,55.25
2023-10-20T04:32:54.477Z,54.63
2023-10-20T04:35:57.253Z,56.58
2023-10-20T04:38:59.963Z,68.25
2023-10-20T04:42:20.190Z,42.53
2023-10-20T04:45:25.545Z,62.22
2023-10-20T04:48:22.026Z,58.10
2023-10-20T04:51:20.135Z,50.25
2023-10-20T04:54:11.509Z,38.08
2023-10-20T04:57:14.054Z,42.47
2023-10-20T05:00:16.696Z,48.63
2023-10-20T05:03:30.970Z,33.28
2023-10-20T05:06:24.416Z,32.92
2023-10-20T05:09:19.125Z,35.45
2023-10-20T05:12:10.115Z,36.67
2023-10-20T05:15:00.438Z,31.77
2023-10-20T05:17:51.974Z,29.70
2023-10-20T05:20:42.387Z,29.67
2023-10-20T05:23:35.398Z,32.33
2023-10-20T05:26:25.723Z,26.42
2023-10-20T05:29:16.053Z,26.55
2023-10-20T05:32:07.945Z,21.77
2023-10-20T05:34:58.296Z,18.25
2023-10-20T05:37:48.533Z,20.15
2023-10-20T05:40:41.476Z,21.90
2023-10-20T05:43:31.771Z,16.60
2023-10-20T05:46:23.100Z,16.00
2023-10-20T05:49:13.537Z,19.52
2023-10-20T05:52:03.764Z,17.10
2023-10-20T05:54:55.374Z,15.55
2023-10-20T05:57:48.824Z,17.58
2023-10-20T06:00:53.570Z,14.77
2023-10-20T06:03:51.019Z,13.90
2023-10-20T06:06:41.353Z,13.45
2023-10-20T06:09:31.971Z,12.77
2023-10-20T06:12:22.194Z,13.55
2023-10-20T06:15:15.361Z,11.45
2023-10-20T06:18:05.882Z,13.98
2023-10-20T06:20:56.177Z,13.30
2023-10-20T06:23:47.520Z,11.32
2023-10-20T06:26:37.828Z,14.80
2023-10-20T06:29:43.068Z,11.40
2023-10-20T06:32:43.445Z,12.48
2023-10-20T06:35:34.531Z,13.73
2023-10-20T06:38:32.047Z,11.27
2023-10-20T06:41:22.527Z,10.63
2023-10-20T06:44:12.910Z,12.35
2023-10-20T06:47:03.793Z,9.40
2023-10-20T06:49:56.683Z,8.55
2023-10-20T06:52:46.937Z,9.85
2023-10-20T06:55:59.988Z,10.35
2023-10-20T06:58:48.583Z,11.38
2023-10-20T07:01:38.978Z,10.95
2023-10-20T07:04:29.326Z,9.18
2023-10-20T07:07:22.301Z,12.95
2023-10-20T07:10:12.887Z,10.82
2023-10-20T07:13:03.756Z,10.30
2023-10-20T07:15:58.113Z,10.23
2023-10-20T07:18:49.236Z,11.23
2023-10-20T07:21:39.601Z,12.13
2023-10-20T07:24:32.727Z,9.80
2023-10-20T07:27:23.568Z,10.93
2023-10-20T07:30:15.359Z,13.02
2023-10-20T07:33:06.665Z,13.13
2023-10-20T07:35:57.014Z,13.73
2023-10-20T07:38:47.407Z,14.07
2023-10-20T07:41:42.266Z,12.52
2023-10-20T07:44:34.240Z,13.27
2023-10-20T07:47:24.797Z,11.77
2023-10-20T07:50:15.211Z,14.15
2023-10-20T07:53:06.658Z,13.90
2023-10-20T07:55:56.919Z,12.63
2023-10-20T07:58:49.749Z,12.77
2023-10-20T08:01:40.041Z,13.45
2023-10-20T08:04:31.038Z,14.45
2023-10-20T08:07:21.601Z,14.55
2023-10-20T08:10:12.762Z,15.85
2023-10-20T08:13:03.931Z,14.27
2023-10-20T08:15:56.839Z,14.93
2023-10-20T08:18:47.253Z,18.30
2023-10-20T08:21:37.625Z,13.63
2023-10-20T08:24:28.156Z,15.02
2023-10-20T08:27:19.938Z,16.13
2023-10-20T08:30:11.586Z,18.00
2023-10-20T08:33:05.235Z,17.02
2023-10-20T08:35:55.553Z,15.77
2023-10-20T08:38:48.717Z,17.88
2023-10-20T08:41:39.288Z,19.48
2023-10-20T08:44:31.658Z,19.40
2023-10-20T08:47:23.782Z,19.50
2023-10-20T08:50:19.361Z,24.58
2023-10-20T08:53:10.882Z,24.73
2023-10-20T08:56:01.121Z,31.38
2023-10-20T08:58:51.360Z,32.85
2023-10-20T09:01:43.654Z,31.75
2023-10-20T09:04:35.844Z,32.50
2023-10-20T09:07:28.849Z,43.75
2023-10-20T09:10:19.065Z,40.10
2023-10-20T09:13:09.425Z,47.42
2023-10-20T09:15:59.679Z,51.00
2023-10-20T09:18:54.617Z,45.53
2023-10-20T09:21:49.234Z,47.92
2023-10-20T09:24:42.196Z,41.63
2023-10-20T09:27:32.492Z,60.40
2023-10-20T09:30:23.074Z,55.53
2023-10-20T09:33:14.976Z,48.40
2023-10-20T09:36:06.152Z,45.20
2023-10-20T09:38:57.855Z,45.25
2023-10-20T09:41:54.846Z,43.30
2023-10-20T09:44:51.870Z,40.08
2023-10-20T09:47:48.217Z,37.92
2023-10-20T09:50:38.988Z,46.70
2023-10-20T09:53:30.215Z,45.13
2023-10-20T09:56:21.898Z,41.35
2023-10-20T09:59:20.009Z,42.30
2023-10-20T10:02:10.854Z,40.50
2023-10-20T10:05:01.742Z,33.83
2023-10-20T10:08:05.453Z,41.05
2023-10-20T10:10:55.683Z,28.85
2023-10-20T10:13:46.269Z,31.67
2023-10-20T10:16:54.797Z,32.05
2023-10-20T10:19:53.094Z,34.30
2023-10-20T10:22:45.578Z,30.98
2023-10-20T10:25:40.660Z,32.53
2023-10-20T10:28:32.165Z,33.03
2023-10-20T10:31:22.448Z,28.75
2023-10-20T10:34:16.125Z,26.00
2023-10-20T10:37:06.382Z,25.27
2023-10-20T10:39:56.611Z,30.50
2023-10-20T10:42:48.857Z,25.98
2023-10-20T10:48:33.029Z,22.80
2023-10-20T10:51:25.880Z,25.98
2023-10-20T10:54:16.664Z,23.13
2023-10-20T10:57:07.214Z,27.33
2023-10-20T10:59:57.869Z,22.60
2023-10-20T11:02:49.082Z,21.67
2023-10-20T11:05:40.573Z,22.45
2023-10-20T11:08:35.454Z,18.48
2023-10-20T11:11:28.044Z,20.48
2023-10-20T11:14:22.376Z,20.38
2023-10-20T11:17:13.170Z,23.05
2023-10-20T11:20:04.218Z,22.40
2023-10-20T11:22:56.550Z,17.90
2023-10-20T11:25:51.119Z,17.48
2023-10-20T11:28:41.364Z,15.88
2023-10-20T11:31:33.049Z,13.55
2023-10-20T11:34:23.926Z,16.65
2023-10-20T11:37:15.553Z,13.55
2023-10-20T11:40:08.825Z,16.38
2023-10-20T11:43:01.795Z,10.75
2023-10-20T11:45:52.343Z,12.10
2023-10-20T11:48:42.653Z,10.40
2023-10-20T11:51:32.974Z,10.23
2023-10-20T11:54:23.252Z,12.00
2023-10-20T11:57:13.461Z,10.02
2023-10-20T12:00:08.931Z,10.90
2023-10-20T12:03:06.243Z,9.65
2023-10-20T12:05:56.914Z,8.85
2023-10-20T12:08:47.946Z,11.40
2023-10-20T12:11:40.033Z,10.25
2023-10-20T12:14:30.408Z,9.82
2023-10-20T12:17:24.330Z,8.98
2023-10-20T12:20:14.746Z,8.07
2023-10-20T12:23:07.433Z,9.68
2023-10-20T12:25:57.851Z,9.40
2023-10-20T12:28:48.065Z,8.52
2023-10-20T12:31:38.941Z,7.70
2023-10-20T12:34:33.422Z,7.22
2023-10-20T12:37:24.454Z,10.25
2023-10-20T12:40:15.762Z,6.53
2023-10-20T12:43:12.982Z,8.70
2023-10-20T12:46:05.923Z,7.97
2023-10-20T12:48:56.308Z,8.70
2023-10-20T12:51:49.771Z,7.95
2023-10-20T12:54:39.999Z,8.80
2023-10-20T12:57:30.278Z,7.53
2023-10-20T13:00:21.517Z,10.38
2023-10-20T13:03:12.132Z,9.32
2023-10-20T13:06:02.665Z,9.50
2023-10-20T13:08:55.911Z,9.13
2023-10-20T13:11:47.414Z,11.88
2023-10-20T13:14:38.611Z,9.63
2023-10-20T13:17:29.049Z,7.60
2023-10-20T13:20:19.658Z,8.82
2023-10-20T13:23:10.058Z,8.32
2023-10-20T13:26:08.252Z,9.48
2023-10-20T13:28:58.506Z,8.60
2023-10-20T13:31:49.085Z,7.60
2023-10-20T13:34:39.379Z,7.97
2023-10-20T13:37:29.705Z,9.52
2023-10-20T13:40:20.109Z,7.82
2023-10-20T13:43:12.956Z,7.93
2023-10-20T13:46:03.833Z,7.50
2023-10-20T13:48:54.134Z,8.90
2023-10-20T13:51:44.604Z,7.05
2023-10-20T13:54:35.206Z,9.77
2023-10-20T13:57:25.537Z,7.75
2023-10-20T14:00:19.701Z,9.10
2023-10-20T14:03:10.217Z,9.45
2023-10-20T14:06:00.635Z,8.23
2023-10-20T14:08:51.668Z,7.65
2023-10-20T14:11:43.767Z,7.85
2023-10-20T14:14:34.185Z,10.13
2023-10-20T14:17:27.107Z,9.20
2023-10-20T14:20:17.528Z,8.13
2023-10-20T14:23:09.154Z,10.20
2023-10-20T14:26:00.154Z,11.98
2023-10-20T14:28:50.548Z,11.77
2023-10-20T14:31:40.925Z,12.70
2023-10-20T14:34:36.451Z,15.88
2023-10-20T14:37:26.756Z,14.57
2023-10-20T14:40:17.315Z,12.77
2023-10-20T14:43:08.434Z,17.30
2023-10-20T14:46:00.126Z,15.25
2023-10-20T14:48:50.451Z,21.60
2023-10-20T14:51:43.363Z,23.67
2023-10-20T14:54:34.615Z,23.83
2023-10-20T14:57:24.973Z,25.23
2023-10-20T15:00:16.780Z,23.63
2023-10-20T15:03:07.383Z,28.83
2023-10-20T15:05:58.055Z,23.73
2023-10-20T15:08:51.966Z,26.20
2023-10-20T15:11:42.420Z,29.05
2023-10-20T15:14:32.737Z,27.25
2023-10-20T15:17:23.003Z,23.92
2023-10-20T15:20:14.082Z,28.02
2023-10-20T15:23:16.439Z,22.70
2023-10-20T15:26:10.895Z,31.73
2023-10-20T15:29:01.132Z,28.38
2023-10-20T15:31:51.454Z,30.02
2023-10-20T15:34:41.750Z,27.90
2023-10-20T15:37:32.214Z,30.80
2023-10-20T15:40:22.647Z,30.25
2023-10-20T15:43:15.687Z,29.58
2023-10-20T15:46:10.709Z,25.65
2023-10-20T15:49:01.055Z,30.58
2023-10-20T15:51:51.266Z,33.47
2023-10-20T15:54:41.524Z,37.35
2023-10-20T15:57:31.781Z,35.70
2023-10-20T16:00:26.355Z,36.97
2023-10-20T16:03:20.355Z,40.50
2023-10-20T16:06:12.415Z,38.10
2023-10-20T16:09:06.929Z,40.95
2023-10-20T16:11:57.232Z,46.25
2023-10-20T16:14:47.834Z,43.60
2023-10-20T16:17:40.711Z,39.72
2023-10-20T16:20:31.776Z,39.00
2023-10-20T16:23:22.963Z,36.72
2023-10-20T16:26:14.075Z,35.38
2023-10-20T16:29:04.307Z,43.78
2023-10-20T16:31:54.661Z,36.65
2023-10-20T16:34:48.056Z,39.30
2023-10-20T16:37:38.325Z,38.38
2023-10-20T16:40:28.547Z,31.60
2023-10-20T16:43:18.931Z,36.38
2023-10-20T16:46:09.246Z,34.35
2023-10-20T16:48:59.474Z,35.28
2023-10-20T16:51:52.531Z,33.72
2023-10-20T16:54:42.792Z,47.33
2023-10-20T16:57:33.083Z,43.70
2023-10-20T17:00:23.804Z,34.28
2023-10-20T17:03:14.136Z,36.22
2023-10-20T17:06:07.125Z,46.80
2023-10-20T17:09:00.351Z,35.42
2023-10-20T17:11:51.496Z,37.33
2023-10-20T17:14:41.815Z,27.65
2023-10-20T17:17:32.126Z,26.83
2023-10-20T17:20:22.520Z,31.00
2023-10-20T17:23:14.843Z,27.57
2023-10-20T17:26:09.540Z,28.55
2023-10-20T17:28:59.928Z,30.55
2023-10-20T17:31:50.331Z,28.17
2023-10-20T17:34:40.887Z,28.70
2023-10-20T17:37:31.089Z,23.80
2023-10-20T17:40:21.649Z,33.72
2023-10-20T17:43:14.505Z,30.90
2023-10-20T17:46:07.230Z,25.40
2023-10-20T17:48:57.496Z,32.53
2023-10-20T17:51:47.714Z,25.58
2023-10-20T17:54:37.936Z,22.92
2023-10-20T17:57:29.123Z,24.98
2023-10-20T18:00:22.968Z,30.95
2023-10-20T18:03:13.384Z,33.97
2023-10-20T18:06:10.815Z,29.73
2023-10-20T18:09:01.752Z,33.80
2023-10-20T18:11:52.078Z,41.97
2023-10-20T18:14:42.716Z,38.30
2023-10-20T18:17:35.625Z,33.15
2023-10-20T18:20:25.964Z,35.42
2023-10-20T18:23:16.486Z,41.80
2023-10-20T18:26:07.642Z,42.63
2023-10-20T18:28:58.834Z,49.72
2023-10-20T18:31:49.191Z,58.38
2023-10-20T18:34:42.028Z,45.38
2023-10-20T18:37:32.277Z,51.40
2023-10-20T18:40:22.522Z,63.13
2023-10-20T18:43:13.395Z,57.20
2023-10-20T18:46:03.782Z,58.65
2023-10-20T18:48:54.108Z,75.20
2023-10-20T18:51:47.109Z,68.45
2023-10-20T18:54:37.406Z,92.22
2023-10-20T18:57:27.644Z,71.30
2023-10-20T19:00:19.476Z,65.75
2023-10-20T19:03:10.109Z,92.55
2023-10-20T19:06:00.413Z,90.35
2023-10-20T19:08:53.451Z,64.35
2023-10-20T19:11:43.749Z,91.30
2023-10-20T19:14:34.179Z,103.03
2023-10-20T19:17:25.105Z,88.60
2023-10-20T19:20:17.160Z,113.45
2023-10-20T19:23:10.090Z,103.32
2023-10-20T19:26:09.141Z,132.93
2023-10-20T19:28:59.811Z,140.85
2023-10-20T19:31:50.082Z,100.72
2023-10-20T19:34:40.392Z,93.07
2023-10-20T19:37:30.801Z,108.53
2023-10-20T19:40:21.892Z,148.80
2023-10-20T19:43:14.703Z,125.45
2023-10-20T19:46:05.060Z,159.63
2023-10-20T19:48:55.267Z,153.00
2023-10-20T19:51:45.499Z,195.23
2023-10-20T19:54:35.779Z,147.88
2023-10-20T19:57:26.169Z,96.35
2023-10-20T20:00:20.006Z,124.88
2023-10-20T20:03:12.180Z,161.20
2023-10-20T20:06:10.747Z,180.10
2023-10-20T20:09:01.245Z,116.38
2023-10-20T20:11:51.592Z,176.20
2023-10-20T20:14:41.882Z,159.15
2023-10-20T20:17:34.825Z,158.20
2023-10-20T20:20:25.312Z,134.07
2023-10-20T20:23:15.522Z,169.27
2023-10-20T20:26:06.076Z,110.82
2023-10-20T20:28:56.426Z,129.45
2023-10-20T20:31:47.004Z,145.15
2023-10-20T20:34:40.449Z,295.58
2023-10-20T20:37:30.648Z,196.95
2023-10-20T20:40:21.992Z,178.48
2023-10-20T20:43:12.946Z,212.88
2023-10-20T20:46:03.217Z,182.55
2023-10-20T20:48:54.375Z,94.65
2023-10-20T20:51:47.785Z,137.48
2023-10-20T20:54:41.520Z,192.27
2023-10-20T20:57:33.187Z,161.73
2023-10-20T21:00:23.662Z,78.07
2023-10-20T21:03:14.468Z,158.23
2023-10-20T21:06:05.337Z,205.18
2023-10-20T21:08:58.252Z,103.75
2023-10-20T21:11:48.584Z,170.10
2023-10-20T21:14:38.862Z,116.65
2023-10-20T21:17:29.965Z,108.63
2023-10-20T21:20:20.412Z,105.50
2023-10-20T21:23:10.617Z,86.53
2023-10-20T21:26:04.650Z,116.75
2023-10-20T21:28:54.955Z,125.82
2023-10-20T21:31:45.183Z,87.35
2023-10-20T21:34:35.932Z,100.28
2023-10-20T21:37:26.165Z,63.28
2023-10-20T21:40:16.765Z,67.40
2023-10-20T21:43:09.918Z,60.38
2023-10-20T21:46:01.497Z,52.40
2023-10-20T21:48:52.247Z,56.00
2023-10-20T21:51:42.861Z,118.38
2023-10-20T21:54:33.142Z,59.75
2023-10-20T21:57:23.408Z,74.95
2023-10-20T22:00:24.612Z,51.30
2023-10-20T22:03:17.114Z,43.55
2023-10-20T22:06:08.736Z,39.05
2023-10-20T22:08:59.132Z,51.33
2023-10-20T22:11:49.712Z,54.28
2023-10-20T22:14:40.062Z,55.72
2023-10-20T22:17:33.178Z,53.97
2023-10-20T22:20:23.471Z,50.45
2023-10-20T22:23:14.554Z,41.30
2023-10-20T22:26:04.918Z,34.70
2023-10-20T22:28:55.168Z,37.53
2023-10-20T22:31:45.562Z,31.60
2023-10-20T22:34:38.375Z,30.25
2023-10-20T22:37:28.805Z,39.13
2023-10-20T22:40:19.482Z,37.85
2023-10-20T22:43:09.766Z,29.05
2023-10-20T22:46:05.028Z,44.78
2023-10-20T22:48:55.262Z,51.63
2023-10-20T22:51:48.158Z,61.35
2023-10-20T22:54:38.370Z,73.43
2023-10-20T22:57:28.578Z,215.18
2023-10-20T23:00:19.392Z,341.75
2023-10-20T23:03:09.727Z,314.92
2023-10-20T23:06:00.035Z,173.85
2023-10-20T23:08:52.911Z,517.08
2023-10-20T23:11:43.174Z,200.68
2023-10-20T23:14:33.394Z,281.60
2023-10-20T23:17:23.716Z,515.58
2023-10-20T23:20:15.250Z,460.92
2023-10-20T23:23:06.043Z,419.05
2023-10-20T23:25:58.873Z,483.33
2023-10-20T23:28:49.207Z,527.15
2023-10-20T23:31:39.415Z,552.20
2023-10-20T23:34:29.670Z,244.57
2023-10-20T23:37:20.102Z,270.20
2023-10-20T23:40:11.205Z,323.65
2023-10-20T23:43:03.991Z,279.90
2023-10-20T23:45:54.265Z,313.40
2023-10-20T23:48:44.566Z,491.60
2023-10-20T23:51:34.973Z,494.65
2023-10-20T23:54:25.265Z,293.05
2023-10-20T23:57:15.643Z,384.42
